createdAt,value
2023-01-17T00:02:17.722Z,96728.74
2023-01-17T00:05:03.975Z,96720.77
2023-01-17T00:07:49.680Z,96720.05
2023-01-17T00:10:26.335Z,96720.17
2023-01-17T00:13:02.687Z,96726.27
2023-01-17T00:15:30.884Z,96732.36
2023-01-17T00:17:58.523Z,96735.89
2023-01-17T00:20:46.487Z,96739.09
2023-01-17T00:23:37.050Z,96732.84
2023-01-17T00:26:17.801Z,96728.61
2023-01-17T00:28:45.794Z,96732.80
2023-01-17T00:31:14.716Z,96739.71
2023-01-17T00:33:41.730Z,96740.14
2023-01-17T00:36:10.147Z,96734.85
2023-01-17T00:38:38.868Z,96743.66
2023-01-17T00:41:12.218Z,96746.60
2023-01-17T00:43:57.575Z,96738.14
2023-01-17T00:46:43.258Z,96734.31
2023-01-17T00:49:29.035Z,96726.33
2023-01-17T00:52:15.317Z,96727.92
2023-01-17T00:55:01.509Z,96721.58
2023-01-17T00:57:47.525Z,96713.87
2023-01-17T01:00:35.884Z,96713.60
2023-01-17T01:03:26.891Z,96718.10
2023-01-17T01:06:12.609Z,96706.39
2023-01-17T01:08:58.699Z,96702.17
2023-01-17T01:11:44.694Z,96694.89
2023-01-17T01:14:30.642Z,96684.23
2023-01-17T01:17:18.007Z,96686.97
2023-01-17T01:20:03.974Z,96674.33
2023-01-17T01:22:49.956Z,96665.67
2023-01-17T01:25:36.347Z,96655.31
2023-01-17T01:28:29.512Z,96652.81
2023-01-17T01:31:18.292Z,96645.52
2023-01-17T01:33:45.922Z,96646.80
2023-01-17T01:36:13.484Z,96648.05
2023-01-17T01:38:40.682Z,96647.23
2023-01-17T01:41:07.891Z,96646.58
2023-01-17T01:43:40.991Z,96643.52
2023-01-17T01:46:12.950Z,96649.69
2023-01-17T01:48:49.632Z,96645.54
2023-01-17T01:51:21.549Z,96645.44
2023-01-17T01:53:52.327Z,96650.34
2023-01-17T01:56:23.066Z,96646.84
2023-01-17T01:58:52.261Z,96656.73
2023-01-17T02:01:19.742Z,96658.67
2023-01-17T02:03:49.086Z,96662.42
2023-01-17T02:06:35.627Z,96670.59
2023-01-17T02:09:10.254Z,96673.06
2023-01-17T02:11:39.569Z,96677.89
2023-01-17T02:14:13.771Z,96671.86
2023-01-17T02:17:02.528Z,96669.26
2023-01-17T02:19:44.996Z,96672.80
2023-01-17T02:22:24.362Z,96665.03
2023-01-17T02:25:11.686Z,96664.73
2023-01-17T02:27:44.565Z,96656.67
2023-01-17T02:30:23.794Z,96654.35
2023-01-17T02:33:02.308Z,96644.95
2023-01-17T02:35:34.169Z,96632.41
2023-01-17T02:38:36.730Z,96630.84
2023-01-17T02:41:07.273Z,96631.29
2023-01-17T02:43:36.984Z,96626.23
2023-01-17T02:46:04.494Z,96618.89
2023-01-17T02:48:34.975Z,96613.39
2023-01-17T02:51:38.462Z,96613.31
2023-01-17T02:54:27.923Z,96611.65
2023-01-17T02:57:06.543Z,96603.62
2023-01-17T02:59:51.711Z,96603.00
2023-01-17T03:02:50.410Z,96607.15
2023-01-17T03:05:28.801Z,96607.94
2023-01-17T03:07:57.395Z,96605.29
2023-01-17T03:10:24.849Z,96606.80
2023-01-17T03:12:57.837Z,96604.55
2023-01-17T03:15:25.297Z,96600.34
2023-01-17T03:17:57.465Z,96597.36
2023-01-17T03:20:24.515Z,96595.64
2023-01-17T03:22:51.880Z,96590.08
2023-01-17T03:25:19.238Z,96589.19
2023-01-17T03:27:46.502Z,96593.63
2023-01-17T03:30:14.068Z,96590.86
2023-01-17T03:32:41.627Z,96584.74
2023-01-17T03:35:09.305Z,96578.80
2023-01-17T03:37:36.660Z,96571.90
2023-01-17T03:40:04.835Z,96563.94
2023-01-17T03:42:33.420Z,96554.44
2023-01-17T03:45:00.686Z,96549.83
2023-01-17T03:47:28.658Z,96550.26
2023-01-17T03:49:55.813Z,96548.98
2023-01-17T03:52:22.995Z,96542.94
2023-01-17T03:54:50.226Z,96544.63
2023-01-17T03:57:17.585Z,96541.11
2023-01-17T03:59:45.659Z,96543.58
2023-01-17T04:02:13.317Z,96551.36
2023-01-17T04:04:40.894Z,96551.16
2023-01-17T04:07:08.151Z,96551.11
2023-01-17T04:09:35.388Z,96544.04
2023-01-17T04:12:03.485Z,96543.74
2023-01-17T04:14:30.568Z,96542.85
2023-01-17T04:16:57.936Z,96546.84
2023-01-17T04:19:25.260Z,96549.87
2023-01-17T04:21:52.513Z,96551.20
2023-01-17T04:24:19.982Z,96554.50
2023-01-17T04:26:47.551Z,96559.40
2023-01-17T04:29:14.818Z,96559.17
2023-01-17T04:31:42.321Z,96566.88
2023-01-17T04:34:09.626Z,96564.23
2023-01-17T04:36:37.543Z,96564.05
2023-01-17T04:39:04.959Z,96557.77
2023-01-17T04:41:33.555Z,96561.39
2023-01-17T04:44:02.655Z,96560.05
2023-01-17T04:46:30.214Z,96562.96
2023-01-17T04:48:57.480Z,96564.00
2023-01-17T04:51:25.034Z,96561.02
2023-01-17T04:53:52.297Z,96563.67
2023-01-17T04:56:19.856Z,96561.50
2023-01-17T04:58:47.868Z,96563.72
2023-01-17T05:01:15.163Z,96564.02
2023-01-17T05:03:42.450Z,96558.64
2023-01-17T05:06:10.019Z,96553.81
2023-01-17T05:08:37.374Z,96547.35
2023-01-17T05:11:04.639Z,96543.44
2023-01-17T05:13:32.917Z,96553.56
2023-01-17T05:16:00.373Z,96555.39
2023-01-17T05:18:27.749Z,96556.66
2023-01-17T05:21:00.984Z,96557.21
2023-01-17T05:23:28.292Z,96559.54
2023-01-17T05:25:55.554Z,96563.71
2023-01-17T05:28:23.012Z,96563.89
2023-01-17T05:30:50.291Z,96556.11
2023-01-17T05:33:18.100Z,96558.20
2023-01-17T05:35:45.404Z,96559.70
2023-01-17T05:38:12.661Z,96562.28
2023-01-17T05:40:39.929Z,96561.69
2023-01-17T05:43:08.400Z,96565.25
2023-01-17T05:45:36.073Z,96566.17
2023-01-17T05:48:04.729Z,96568.23
2023-01-17T05:50:34.984Z,96562.92
2023-01-17T05:53:09.386Z,96571.30
2023-01-17T05:55:37.907Z,96570.11
2023-01-17T05:58:06.487Z,96568.86
2023-01-17T06:00:34.257Z,96565.88
2023-01-17T06:03:03.160Z,96561.30
2023-01-17T06:05:31.120Z,96563.97
2023-01-17T06:07:59.917Z,96558.17
2023-01-17T06:10:29.012Z,96555.62
2023-01-17T06:13:10.397Z,96556.50
2023-01-17T06:15:38.982Z,96557.95
2023-01-17T06:18:10.458Z,96559.48
2023-01-17T06:20:39.132Z,96564.01
2023-01-17T06:23:09.389Z,96558.92
2023-01-17T06:25:48.100Z,96544.32
2023-01-17T06:28:17.883Z,96546.63
2023-01-17T06:30:45.870Z,96541.06
2023-01-17T06:33:19.077Z,96542.96
2023-01-17T06:35:49.483Z,96539.39
2023-01-17T06:38:18.173Z,96547.73
2023-01-17T06:40:46.357Z,96551.65
2023-01-17T06:43:13.726Z,96546.41
2023-01-17T06:45:41.072Z,96547.76
2023-01-17T06:48:09.136Z,96559.05
2023-01-17T06:50:37.633Z,96558.93
2023-01-17T06:53:06.609Z,96562.70
2023-01-17T06:55:39.658Z,96565.88
2023-01-17T06:58:09.091Z,96565.15
2023-01-17T07:00:37.196Z,96567.88
2023-01-17T07:03:15.213Z,96566.10
2023-01-17T07:05:42.577Z,96568.48
2023-01-17T07:08:09.833Z,96574.58
2023-01-17T07:10:37.090Z,96577.30
2023-01-17T07:13:04.347Z,96577.44
2023-01-17T07:15:33.145Z,96573.07
2023-01-17T07:18:02.967Z,96576.64
2023-01-17T07:20:30.626Z,96586.19
2023-01-17T07:22:58.803Z,96585.45
2023-01-17T07:25:27.726Z,96586.23
2023-01-17T07:27:57.154Z,96587.73
2023-01-17T07:30:24.627Z,96588.81
2023-01-17T07:32:52.935Z,96592.10
2023-01-17T07:35:20.769Z,96600.35
2023-01-17T07:37:50.875Z,96609.93
2023-01-17T07:40:19.717Z,96618.47
2023-01-17T07:42:47.510Z,96618.67
2023-01-17T07:45:16.132Z,96620.15
2023-01-17T07:47:45.461Z,96624.02
2023-01-17T07:50:13.165Z,96630.40
2023-01-17T07:52:41.159Z,96641.40
2023-01-17T07:55:09.068Z,96644.97
2023-01-17T07:57:36.485Z,96651.02
2023-01-17T08:00:05.478Z,96658.18
2023-01-17T08:02:39.219Z,96665.90
2023-01-17T08:05:06.646Z,96667.62
2023-01-17T08:07:34.417Z,96662.41
2023-01-17T08:10:02.717Z,96662.86
2023-01-17T08:12:30.527Z,96660.65
2023-01-17T08:14:57.745Z,96668.30
2023-01-17T08:17:24.817Z,96671.03
2023-01-17T08:19:52.759Z,96670.52
2023-01-17T08:22:20.087Z,96667.45
2023-01-17T08:24:48.186Z,96663.23
2023-01-17T08:27:15.827Z,96654.86
2023-01-17T08:29:47.318Z,96656.04
2023-01-17T08:32:16.012Z,96662.10
2023-01-17T08:34:43.775Z,96669.02
2023-01-17T08:37:11.158Z,96676.90
2023-01-17T08:39:38.447Z,96685.16
2023-01-17T08:42:05.871Z,96691.09
2023-01-17T08:44:33.727Z,96691.73
2023-01-17T08:47:01.270Z,96692.98
2023-01-17T08:49:28.831Z,96703.75
2023-01-17T08:51:56.129Z,96700.88
2023-01-17T08:54:23.214Z,96700.64
2023-01-17T08:56:52.265Z,96700.92
2023-01-17T08:59:19.385Z,96697.41
2023-01-17T09:01:47.555Z,96687.09
2023-01-17T09:04:15.623Z,96684.27
2023-01-17T09:06:47.386Z,96690.04
2023-01-17T09:09:18.877Z,96685.27
2023-01-17T09:11:46.104Z,96691.23
2023-01-17T09:14:13.964Z,96691.91
2023-01-17T09:16:41.060Z,96699.87
2023-01-17T09:19:08.655Z,96709.27
2023-01-17T09:21:36.419Z,96705.58
2023-01-17T09:24:03.844Z,96708.39
2023-01-17T09:26:31.022Z,96707.48
2023-01-17T09:28:59.004Z,96707.85
2023-01-17T09:31:26.668Z,96703.56
2023-01-17T09:33:55.490Z,96717.77
2023-01-17T09:36:23.888Z,96716.27
2023-01-17T09:38:57.438Z,96714.92
2023-01-17T09:41:43.127Z,96704.20
2023-01-17T09:44:33.406Z,96709.05
2023-01-17T09:47:11.843Z,96704.13
2023-01-17T09:49:42.845Z,96712.17
2023-01-17T09:52:22.832Z,96707.09
2023-01-17T09:54:51.002Z,96711.18
2023-01-17T09:57:44.135Z,96712.67
2023-01-17T10:00:35.750Z,96714.89
2023-01-17T10:03:40.877Z,96712.05
2023-01-17T10:06:13.775Z,96711.45
2023-01-17T10:08:57.283Z,96709.70
2023-01-17T10:12:02.809Z,96710.72
2023-01-17T10:14:48.181Z,96710.89
2023-01-17T10:17:30.369Z,96709.90
2023-01-17T10:20:03.809Z,96715.44
2023-01-17T10:23:07.411Z,96716.58
2023-01-17T10:25:43.643Z,96716.11
2023-01-17T10:28:24.458Z,96721.45
2023-01-17T10:30:57.843Z,96725.04
2023-01-17T10:33:29.052Z,96737.38
2023-01-17T10:36:20.126Z,96741.86
2023-01-17T10:38:54.874Z,96739.39
2023-01-17T10:41:33.078Z,96736.98
2023-01-17T10:44:12.003Z,96738.77
2023-01-17T10:46:54.870Z,96729.98
2023-01-17T10:49:24.373Z,96721.85
2023-01-17T10:52:10.224Z,96720.38
2023-01-17T10:54:56.312Z,96720.94
2023-01-17T10:57:27.129Z,96718.85
2023-01-17T11:00:01.066Z,96713.91
2023-01-17T11:02:39.324Z,96706.26
2023-01-17T11:05:29.791Z,96701.38
2023-01-17T11:08:05.853Z,96708.56
2023-01-17T11:10:56.733Z,96701.22
2023-01-17T11:13:33.777Z,96696.61
2023-01-17T11:16:05.816Z,96689.91
2023-01-17T11:18:37.303Z,96688.94
2023-01-17T11:21:22.756Z,96692.08
2023-01-17T11:23:54.430Z,96691.00
2023-01-17T11:26:30.484Z,96696.23
2023-01-17T11:29:30.032Z,96694.09
2023-01-17T11:32:16.305Z,96689.98
2023-01-17T11:34:43.575Z,96690.65
2023-01-17T11:37:20.214Z,96688.48
2023-01-17T11:39:50.068Z,96682.06
2023-01-17T11:42:34.010Z,96679.05
2023-01-17T11:45:28.032Z,96673.53
2023-01-17T11:48:12.366Z,96672.40
2023-01-17T11:50:43.337Z,96676.81
2023-01-17T11:53:21.651Z,96687.30
2023-01-17T11:55:57.896Z,96693.67
2023-01-17T11:58:28.120Z,96691.84
2023-01-17T12:01:33.135Z,96682.44
2023-01-17T12:04:08.102Z,96678.34
2023-01-17T12:07:06.555Z,96669.21
2023-01-17T12:10:06.546Z,96673.06
2023-01-17T12:13:34.910Z,96681.38
2023-01-17T12:16:28.973Z,96698.84
2023-01-17T12:19:03.094Z,96697.30
2023-01-17T12:21:57.679Z,96697.58
2023-01-17T12:24:42.107Z,96694.13
2023-01-17T12:27:18.984Z,96697.40
2023-01-17T12:30:01.081Z,96693.36
2023-01-17T12:32:38.687Z,96686.84
2023-01-17T12:35:16.386Z,96684.98
2023-01-17T12:37:52.690Z,96684.58
2023-01-17T12:40:46.298Z,96683.21
2023-01-17T12:43:26.857Z,96685.25
2023-01-17T12:45:54.219Z,96682.10
2023-01-17T12:48:23.412Z,96685.65
2023-01-17T12:51:38.343Z,96686.54
2023-01-17T12:54:21.080Z,96688.80
2023-01-17T12:57:04.707Z,96693.66
2023-01-17T12:59:40.026Z,96691.75
2023-01-17T13:02:36.161Z,96692.76
2023-01-17T13:05:15.805Z,96691.06
2023-01-17T13:08:03.600Z,96684.55
2023-01-17T13:10:44.198Z,96679.23
2023-01-17T13:13:30.984Z,96679.01
2023-01-17T13:16:07.070Z,96682.36
2023-01-17T13:18:37.213Z,96679.33
2023-01-17T13:21:29.896Z,96683.04
2023-01-17T13:23:58.567Z,96694.33
2023-01-17T13:26:50.277Z,96692.20
2023-01-17T13:29:34.570Z,96689.54
2023-01-17T13:32:14.659Z,96696.13
2023-01-17T13:35:23.276Z,96709.05
2023-01-17T13:38:08.492Z,96718.47
2023-01-17T13:40:58.144Z,96729.65
2023-01-17T13:43:38.867Z,96740.68
2023-01-17T13:46:06.782Z,96750.80
2023-01-17T13:48:37.726Z,96755.73
2023-01-17T13:51:05.914Z,96763.10
2023-01-17T13:53:39.168Z,96769.77
2023-01-17T13:56:27.448Z,96778.38
2023-01-17T13:59:03.133Z,96764.38
2023-01-17T14:01:38.013Z,96735.71
2023-01-17T14:04:08.159Z,96734.21
2023-01-17T14:06:36.535Z,96750.11
2023-01-17T14:09:16.092Z,96754.76
2023-01-17T14:12:13.728Z,96764.67
2023-01-17T14:14:49.817Z,96758.52
2023-01-17T14:17:25.032Z,96756.45
2023-01-17T14:19:55.397Z,96749.61
2023-01-17T14:22:25.780Z,96749.91
2023-01-17T14:25:18.428Z,96741.16
2023-01-17T14:27:49.871Z,96745.07
2023-01-17T14:30:33.607Z,96738.27
2023-01-17T14:33:00.878Z,96732.30
2023-01-17T14:35:34.055Z,96728.85
2023-01-17T14:38:05.184Z,96726.69
2023-01-17T14:40:37.265Z,96726.04
2023-01-17T14:43:11.711Z,96723.93
2023-01-17T14:45:41.675Z,96733.19
2023-01-17T14:48:19.701Z,96738.51
2023-01-17T14:50:49.870Z,96738.75
2023-01-17T14:53:20.586Z,96742.60
2023-01-17T14:55:51.842Z,96745.35
2023-01-17T14:58:21.967Z,96749.04
2023-01-17T15:00:56.345Z,96756.36
2023-01-17T15:03:24.502Z,96749.25
2023-01-17T15:05:54.380Z,96745.95
2023-01-17T15:08:25.782Z,96748.21
2023-01-17T15:10:59.730Z,96751.03
2023-01-17T15:13:43.362Z,96747.55
2023-01-17T15:16:27.787Z,96744.39
2023-01-17T15:18:57.017Z,96750.31
2023-01-17T15:21:40.140Z,96756.34
2023-01-17T15:24:34.132Z,96758.21
2023-01-17T15:27:02.539Z,96756.54
2023-01-17T15:29:35.627Z,96761.27
2023-01-17T15:32:05.854Z,96760.45
2023-01-17T15:34:44.591Z,96767.48
2023-01-17T15:37:35.827Z,96768.80
2023-01-17T15:40:18.084Z,96768.13
2023-01-17T15:42:51.120Z,96760.26
2023-01-17T15:45:21.855Z,96760.27
2023-01-17T15:47:49.131Z,96760.27
2023-01-17T15:50:24.455Z,96758.62
2023-01-17T15:52:55.451Z,96755.50
2023-01-17T15:55:29.814Z,96760.60
2023-01-17T15:57:57.284Z,96759.42
2023-01-17T16:00:25.968Z,96754.65
2023-01-17T16:02:55.881Z,96758.94
2023-01-17T16:05:30.511Z,96759.34
2023-01-17T16:08:01.146Z,96755.05
2023-01-17T16:10:35.811Z,96751.17
2023-01-17T16:13:09.989Z,96744.36
2023-01-17T16:15:38.247Z,96740.96
2023-01-17T16:18:08.703Z,96741.92
2023-01-17T16:20:41.083Z,96740.42
2023-01-17T16:23:11.303Z,96738.83
2023-01-17T16:25:38.873Z,96740.35
2023-01-17T16:28:06.952Z,96739.98
2023-01-17T16:30:34.310Z,96736.71
2023-01-17T16:33:02.797Z,96729.66
2023-01-17T16:35:33.138Z,96731.81
2023-01-17T16:38:03.855Z,96729.25
2023-01-17T16:40:38.924Z,96719.10
2023-01-17T16:43:07.374Z,96715.45
2023-01-17T16:45:43.745Z,96718.92
2023-01-17T16:48:13.659Z,96717.27
2023-01-17T16:50:47.883Z,96714.98
2023-01-17T16:53:23.428Z,96726.03
2023-01-17T16:55:57.963Z,96739.95
2023-01-17T16:58:25.305Z,96749.51
2023-01-17T17:00:54.978Z,96759.65
2023-01-17T17:03:23.051Z,96748.59
2023-01-17T17:05:59.688Z,96739.09
2023-01-17T17:08:30.038Z,96728.70
2023-01-17T17:11:14.991Z,96719.73
2023-01-17T17:13:44.503Z,96708.56
2023-01-17T17:16:19.048Z,96705.21
2023-01-17T17:18:54.236Z,96697.40
2023-01-17T17:21:21.894Z,96691.77
2023-01-17T17:23:58.977Z,96696.95
2023-01-17T17:26:31.263Z,96696.95
2023-01-17T17:28:59.861Z,96694.52
2023-01-17T17:31:28.536Z,96687.63
2023-01-17T17:34:01.138Z,96675.55
2023-01-17T17:36:30.328Z,96667.13
2023-01-17T17:39:02.960Z,96650.95
2023-01-17T17:41:33.548Z,96637.45
2023-01-17T17:44:03.264Z,96632.66
2023-01-17T17:46:33.147Z,96630.02
2023-01-17T17:49:01.233Z,96635.09
2023-01-17T17:51:36.999Z,96640.30
2023-01-17T17:54:07.616Z,96635.59
2023-01-17T17:56:36.410Z,96628.73
2023-01-17T17:59:05.921Z,96623.24
2023-01-17T18:01:34.306Z,96625.00
2023-01-17T18:04:04.234Z,96628.01
2023-01-17T18:06:34.164Z,96622.33
2023-01-17T18:09:03.239Z,96615.01
2023-01-17T18:11:31.388Z,96609.22
2023-01-17T18:14:03.202Z,96608.93
2023-01-17T18:16:36.422Z,96603.11
2023-01-17T18:19:04.873Z,96598.17
2023-01-17T18:21:38.087Z,96587.63
2023-01-17T18:24:06.742Z,96585.30
2023-01-17T18:26:38.709Z,96587.59
2023-01-17T18:29:08.209Z,96591.57
2023-01-17T18:31:36.337Z,96591.33
2023-01-17T18:34:09.443Z,96579.77
2023-01-17T18:36:37.460Z,96577.32
2023-01-17T18:39:12.176Z,96572.64
2023-01-17T18:41:39.903Z,96574.59
2023-01-17T18:44:07.754Z,96571.88
2023-01-17T18:46:36.195Z,96563.64
2023-01-17T18:49:04.504Z,96561.90
2023-01-17T18:51:34.002Z,96552.47
2023-01-17T18:54:06.683Z,96548.60
2023-01-17T18:56:35.099Z,96546.03
2023-01-17T18:59:06.352Z,96543.90
2023-01-17T19:01:35.915Z,96539.54
2023-01-17T19:04:05.491Z,96543.37
2023-01-17T19:06:39.383Z,96544.70
2023-01-17T19:09:08.151Z,96546.02
2023-01-17T19:11:36.372Z,96542.64
2023-01-17T19:14:04.709Z,96536.41
2023-01-17T19:16:38.646Z,96526.84
2023-01-17T19:19:10.428Z,96512.54
2023-01-17T19:21:38.215Z,96505.46
2023-01-17T19:24:06.317Z,96492.76
2023-01-17T19:26:33.780Z,96477.47
2023-01-17T19:29:03.290Z,96462.24
2023-01-17T19:31:34.761Z,96457.05
2023-01-17T19:34:02.947Z,96444.59
2023-01-17T19:36:35.596Z,96438.05
2023-01-17T19:39:06.611Z,96430.36
2023-01-17T19:41:37.831Z,96416.55
2023-01-17T19:44:07.813Z,96405.04
2023-01-17T19:46:36.414Z,96390.45
2023-01-17T19:49:06.592Z,96385.86
2023-01-17T19:51:35.424Z,96373.45
2023-01-17T19:54:06.405Z,96364.61
2023-01-17T19:56:34.245Z,96359.30
2023-01-17T19:59:02.465Z,96362.67
2023-01-17T20:01:33.705Z,96353.61
2023-01-17T20:04:03.512Z,96341.09
2023-01-17T20:06:34.782Z,96337.64
2023-01-17T20:09:05.474Z,96338.11
2023-01-17T20:11:32.935Z,96342.62
2023-01-17T20:14:00.324Z,96340.45
2023-01-17T20:16:30.108Z,96329.00
2023-01-17T20:18:58.900Z,96331.34
2023-01-17T20:21:27.631Z,96328.77
2023-01-17T20:23:57.022Z,96325.81
2023-01-17T20:26:30.609Z,96329.22
2023-01-17T20:28:57.863Z,96333.50
2023-01-17T20:31:25.666Z,96328.55
2023-01-17T20:33:54.935Z,96325.11
2023-01-17T20:36:24.848Z,96323.95
2023-01-17T20:38:53.845Z,96323.26
2023-01-17T20:41:23.469Z,96309.94
2023-01-17T20:43:56.368Z,96308.05
2023-01-17T20:46:26.462Z,96310.73
2023-01-17T20:48:57.407Z,96305.25
2023-01-17T20:51:26.409Z,96301.45
2023-01-17T20:53:56.437Z,96297.46
2023-01-17T20:56:24.290Z,96298.93
2023-01-17T20:58:52.887Z,96293.34
2023-01-17T21:01:23.894Z,96284.73
2023-01-17T21:03:53.248Z,96277.62
2023-01-17T21:06:23.158Z,96278.51
2023-01-17T21:08:51.655Z,96280.52
2023-01-17T21:11:22.435Z,96273.66
2023-01-17T21:13:50.785Z,96265.23
2023-01-17T21:16:20.581Z,96263.34
2023-01-17T21:18:49.575Z,96262.73
2023-01-17T21:21:21.537Z,96258.13
2023-01-17T21:23:50.338Z,96259.55
2023-01-17T21:26:19.132Z,96259.88
2023-01-17T21:28:48.028Z,96256.97
2023-01-17T21:31:24.381Z,96257.41
2023-01-17T21:34:04.329Z,96264.08
2023-01-17T21:36:38.649Z,96276.54
2023-01-17T21:39:11.072Z,96275.38
2023-01-17T21:41:40.489Z,96282.92
2023-01-17T21:44:12.536Z,96293.29
2023-01-17T21:46:40.780Z,96291.54
2023-01-17T21:49:11.343Z,96296.64
2023-01-17T21:51:55.052Z,96296.91
2023-01-17T21:54:53.620Z,96298.31
2023-01-17T21:57:40.735Z,96286.61
2023-01-17T22:00:16.175Z,96272.48
2023-01-17T22:02:47.912Z,96262.75
2023-01-17T22:05:16.427Z,96254.59
2023-01-17T22:08:04.451Z,96246.20
2023-01-17T22:10:32.635Z,96248.60
2023-01-17T22:12:59.894Z,96243.09
2023-01-17T22:15:26.945Z,96242.06
2023-01-17T22:17:54.336Z,96245.40
2023-01-17T22:20:21.661Z,96236.63
2023-01-17T22:22:49.016Z,96233.55
2023-01-17T22:25:16.375Z,96228.80
2023-01-17T22:27:44.042Z,96224.75
2023-01-17T22:30:12.630Z,96223.64
2023-01-17T22:32:40.709Z,96210.95
2023-01-17T22:35:09.091Z,96211.98
2023-01-17T22:37:36.260Z,96202.46
2023-01-17T22:40:05.427Z,96199.62
2023-01-17T22:42:33.944Z,96197.52
2023-01-17T22:45:01.206Z,96193.75
2023-01-17T22:47:28.346Z,96191.71
2023-01-17T22:49:55.706Z,96190.02
2023-01-17T22:52:22.963Z,96203.50
2023-01-17T22:54:50.428Z,96192.48
2023-01-17T22:57:17.700Z,96198.35
2023-01-17T22:59:44.944Z,96193.33
2023-01-17T23:02:12.304Z,96198.77
2023-01-17T23:04:39.314Z,96209.07
2023-01-17T23:07:06.409Z,96210.41
2023-01-17T23:09:33.566Z,96201.17
2023-01-17T23:12:00.719Z,96202.71
2023-01-17T23:14:53.170Z,96191.98
2023-01-17T23:17:41.078Z,96187.50
2023-01-17T23:20:10.970Z,96205.81
2023-01-17T23:22:38.676Z,96212.55
2023-01-17T23:25:10.474Z,96215.33
2023-01-17T23:28:00.836Z,96213.58
2023-01-17T23:30:41.444Z,96214.33
2023-01-17T23:33:16.718Z,96224.63
2023-01-17T23:35:45.916Z,96219.64
2023-01-17T23:38:30.264Z,96225.38
2023-01-17T23:41:27.405Z,96224.11
2023-01-17T23:43:57.237Z,96222.98
2023-01-17T23:46:26.058Z,96224.81
2023-01-17T23:48:54.495Z,96223.42
2023-01-17T23:51:21.654Z,96222.77
2023-01-17T23:53:50.651Z,96226.56
2023-01-17T23:56:24.080Z,96225.21
2023-01-17T23:58:51.208Z,96227.81
